Airport ID:KFOT
Update Time (UTC):23 JUN 18 09:39
Wind Speed (Knots):6
Wind Direction (Magnetic):290
Temperature (°C):12
Dew Point (°C):10
Humidity (%):93
Altimeter (inHg):30.03
Density Altitude (Feet):
Visibility (Miles):10
Clouds (Hundreds of feet):OVC007
Present Weather:
METAR:METAR KFOT 230935Z AUTO 33004KT 10SM OVC007 12/10 A3004 RMK AO1

The data displayed is for advisory purposes only and is not to be used for flight planning or operations.

This page is not automatically refreshed. Reload the page to see current data.